sensor_id;sensor_type;location;lat;lon;timestamp;P1;durP1;ratioP1;P2;durP2;ratioP2
8640;SDS011;4358;42.100;25.222;2024-01-30T00:00:27;10.17;;;5.90;;
8640;SDS011;4358;42.100;25.222;2024-01-30T00:02:54;12.60;;;6.30;;
8640;SDS011;4358;42.100;25.222;2024-01-30T00:05:22;10.00;;;5.60;;
8640;SDS011;4358;42.100;25.222;2024-01-30T00:07:49;11.97;;;5.60;;
8640;SDS011;4358;42.100;25.222;2024-01-30T00:10:16;10.17;;;5.70;;
8640;SDS011;4358;42.100;25.222;2024-01-30T00:12:43;7.60;;;4.77;;
8640;SDS011;4358;42.100;25.222;2024-01-30T00:15:10;6.30;;;3.87;;
8640;SDS011;4358;42.100;25.222;2024-01-30T00:17:36;6.00;;;3.77;;
8640;SDS011;4358;42.100;25.222;2024-01-30T00:20:04;8.83;;;4.63;;
8640;SDS011;4358;42.100;25.222;2024-01-30T00:22:33;7.67;;;4.63;;
8640;SDS011;4358;42.100;25.222;2024-01-30T00:25:00;9.73;;;4.10;;
8640;SDS011;4358;42.100;25.222;2024-01-30T00:27:27;8.30;;;4.30;;
8640;SDS011;4358;42.100;25.222;2024-01-30T00:29:54;8.40;;;4.33;;
8640;SDS011;4358;42.100;25.222;2024-01-30T00:32:21;7.30;;;4.33;;
8640;SDS011;4358;42.100;25.222;2024-01-30T00:34:48;8.17;;;5.50;;
8640;SDS011;4358;42.100;25.222;2024-01-30T00:37:15;6.27;;;3.33;;
8640;SDS011;4358;42.100;25.222;2024-01-30T00:39:43;5.97;;;3.57;;
8640;SDS011;4358;42.100;25.222;2024-01-30T00:42:10;11.13;;;7.97;;
8640;SDS011;4358;42.100;25.222;2024-01-30T00:44:36;8.97;;;4.27;;
8640;SDS011;4358;42.100;25.222;2024-01-30T00:47:04;12.70;;;8.87;;
8640;SDS011;4358;42.100;25.222;2024-01-30T00:49:31;13.90;;;10.93;;
8640;SDS011;4358;42.100;25.222;2024-01-30T00:51:57;8.40;;;4.17;;
8640;SDS011;4358;42.100;25.222;2024-01-30T00:54:24;5.60;;;3.40;;
8640;SDS011;4358;42.100;25.222;2024-01-30T00:56:52;7.30;;;3.67;;
8640;SDS011;4358;42.100;25.222;2024-01-30T00:59:19;5.93;;;3.50;;
8640;SDS011;4358;42.100;25.222;2024-01-30T01:01:46;4.70;;;3.23;;
8640;SDS011;4358;42.100;25.222;2024-01-30T01:04:13;5.27;;;3.47;;
8640;SDS011;4358;42.100;25.222;2024-01-30T01:06:39;9.47;;;5.67;;
8640;SDS011;4358;42.100;25.222;2024-01-30T01:09:09;8.03;;;4.80;;
8640;SDS011;4358;42.100;25.222;2024-01-30T01:11:36;7.07;;;4.97;;
8640;SDS011;4358;42.100;25.222;2024-01-30T01:14:05;17.77;;;9.93;;
8640;SDS011;4358;42.100;25.222;2024-01-30T01:16:32;10.77;;;7.90;;
8640;SDS011;4358;42.100;25.222;2024-01-30T01:18:59;10.63;;;5.83;;
8640;SDS011;4358;42.100;25.222;2024-01-30T01:21:26;10.13;;;5.50;;
8640;SDS011;4358;42.100;25.222;2024-01-30T01:23:53;10.03;;;6.03;;
8640;SDS011;4358;42.100;25.222;2024-01-30T01:26:20;7.83;;;5.17;;
8640;SDS011;4358;42.100;25.222;2024-01-30T01:28:46;7.93;;;4.57;;
8640;SDS011;4358;42.100;25.222;2024-01-30T01:31:15;9.43;;;5.47;;
8640;SDS011;4358;42.100;25.222;2024-01-30T01:33:42;5.77;;;3.93;;
8640;SDS011;4358;42.100;25.222;2024-01-30T01:36:09;6.63;;;4.27;;
8640;SDS011;4358;42.100;25.222;2024-01-30T01:38:36;6.67;;;4.00;;
8640;SDS011;4358;42.100;25.222;2024-01-30T01:41:03;7.53;;;4.00;;
8640;SDS011;4358;42.100;25.222;2024-01-30T01:43:30;12.93;;;6.20;;
8640;SDS011;4358;42.100;25.222;2024-01-30T01:45:56;13.93;;;6.80;;
8640;SDS011;4358;42.100;25.222;2024-01-30T01:48:25;13.87;;;6.80;;
8640;SDS011;4358;42.100;25.222;2024-01-30T01:50:52;13.57;;;7.20;;
8640;SDS011;4358;42.100;25.222;2024-01-30T01:53:19;13.37;;;6.43;;
8640;SDS011;4358;42.100;25.222;2024-01-30T01:55:46;9.40;;;5.53;;
8640;SDS011;4358;42.100;25.222;2024-01-30T01:58:14;10.27;;;5.33;;
8640;SDS011;4358;42.100;25.222;2024-01-30T02:00:41;10.60;;;6.10;;
8640;SDS011;4358;42.100;25.222;2024-01-30T02:03:08;9.43;;;5.70;;
8640;SDS011;4358;42.100;25.222;2024-01-30T02:05:38;7.30;;;5.43;;
8640;SDS011;4358;42.100;25.222;2024-01-30T02:08:08;8.87;;;5.83;;
8640;SDS011;4358;42.100;25.222;2024-01-30T02:10:35;6.90;;;4.33;;
8640;SDS011;4358;42.100;25.222;2024-01-30T02:13:01;8.70;;;4.23;;
8640;SDS011;4358;42.100;25.222;2024-01-30T02:15:30;7.30;;;3.80;;
8640;SDS011;4358;42.100;25.222;2024-01-30T02:17:57;6.93;;;3.87;;
8640;SDS011;4358;42.100;25.222;2024-01-30T02:20:23;9.43;;;4.67;;
8640;SDS011;4358;42.100;25.222;2024-01-30T02:22:52;7.67;;;3.90;;
8640;SDS011;4358;42.100;25.222;2024-01-30T02:25:29;7.13;;;4.67;;
8640;SDS011;4358;42.100;25.222;2024-01-30T02:27:57;6.70;;;4.10;;
8640;SDS011;4358;42.100;25.222;2024-01-30T02:30:24;14.67;;;5.87;;
8640;SDS011;4358;42.100;25.222;2024-01-30T02:32:50;12.97;;;7.17;;
8640;SDS011;4358;42.100;25.222;2024-01-30T02:35:17;13.27;;;7.37;;
8640;SDS011;4358;42.100;25.222;2024-01-30T02:37:44;15.43;;;8.20;;
8640;SDS011;4358;42.100;25.222;2024-01-30T02:40:12;12.17;;;7.30;;
8640;SDS011;4358;42.100;25.222;2024-01-30T02:42:39;11.77;;;5.57;;
8640;SDS011;4358;42.100;25.222;2024-01-30T02:45:07;8.73;;;5.27;;
8640;SDS011;4358;42.100;25.222;2024-01-30T02:47:35;9.87;;;5.17;;
8640;SDS011;4358;42.100;25.222;2024-01-30T02:50:01;8.93;;;4.87;;
8640;SDS011;4358;42.100;25.222;2024-01-30T02:52:28;7.07;;;4.53;;
8640;SDS011;4358;42.100;25.222;2024-01-30T02:54:55;9.93;;;5.33;;
8640;SDS011;4358;42.100;25.222;2024-01-30T02:57:23;9.83;;;5.17;;
8640;SDS011;4358;42.100;25.222;2024-01-30T02:59:50;9.67;;;5.33;;
8640;SDS011;4358;42.100;25.222;2024-01-30T03:02:17;10.63;;;5.50;;
8640;SDS011;4358;42.100;25.222;2024-01-30T03:04:44;9.50;;;5.20;;
8640;SDS011;4358;42.100;25.222;2024-01-30T03:07:11;9.37;;;5.40;;
8640;SDS011;4358;42.100;25.222;2024-01-30T03:09:38;7.80;;;4.97;;
8640;SDS011;4358;42.100;25.222;2024-01-30T03:12:05;8.63;;;4.63;;
8640;SDS011;4358;42.100;25.222;2024-01-30T03:14:33;8.20;;;4.70;;
8640;SDS011;4358;42.100;25.222;2024-01-30T03:17:00;7.83;;;5.07;;
8640;SDS011;4358;42.100;25.222;2024-01-30T03:19:27;7.73;;;4.83;;
8640;SDS011;4358;42.100;25.222;2024-01-30T03:21:54;9.60;;;4.90;;
8640;SDS011;4358;42.100;25.222;2024-01-30T03:24:21;8.53;;;5.20;;
8640;SDS011;4358;42.100;25.222;2024-01-30T03:26:48;9.03;;;4.33;;
8640;SDS011;4358;42.100;25.222;2024-01-30T03:29:15;9.73;;;4.93;;
8640;SDS011;4358;42.100;25.222;2024-01-30T03:31:43;12.00;;;5.00;;
8640;SDS011;4358;42.100;25.222;2024-01-30T03:34:10;9.00;;;5.03;;
8640;SDS011;4358;42.100;25.222;2024-01-30T03:36:37;8.10;;;4.87;;
8640;SDS011;4358;42.100;25.222;2024-01-30T03:39:04;8.03;;;5.23;;
8640;SDS011;4358;42.100;25.222;2024-01-30T03:41:31;6.80;;;4.20;;
8640;SDS011;4358;42.100;25.222;2024-01-30T03:43:58;15.53;;;8.70;;
8640;SDS011;4358;42.100;25.222;2024-01-30T03:46:25;7.93;;;4.33;;
8640;SDS011;4358;42.100;25.222;2024-01-30T03:48:53;7.87;;;5.70;;
8640;SDS011;4358;42.100;25.222;2024-01-30T03:51:20;6.90;;;4.07;;
8640;SDS011;4358;42.100;25.222;2024-01-30T03:53:47;6.43;;;4.47;;
8640;SDS011;4358;42.100;25.222;2024-01-30T03:56:13;6.30;;;3.97;;
8640;SDS011;4358;42.100;25.222;2024-01-30T03:58:40;7.20;;;4.80;;
8640;SDS011;4358;42.100;25.222;2024-01-30T04:01:07;6.00;;;3.50;;
8640;SDS011;4358;42.100;25.222;2024-01-30T04:03:39;7.37;;;3.97;;
8640;SDS011;4358;42.100;25.222;2024-01-30T04:06:07;9.97;;;6.60;;
8640;SDS011;4358;42.100;25.222;2024-01-30T04:08:34;8.33;;;5.20;;
8640;SDS011;4358;42.100;25.222;2024-01-30T04:11:02;9.43;;;5.77;;
8640;SDS011;4358;42.100;25.222;2024-01-30T04:13:30;11.97;;;6.77;;
8640;SDS011;4358;42.100;25.222;2024-01-30T04:15:58;11.83;;;6.57;;
8640;SDS011;4358;42.100;25.222;2024-01-30T04:18:25;17.43;;;6.77;;
8640;SDS011;4358;42.100;25.222;2024-01-30T04:20:52;9.60;;;5.83;;
8640;SDS011;4358;42.100;25.222;2024-01-30T04:23:20;10.87;;;5.27;;
8640;SDS011;4358;42.100;25.222;2024-01-30T04:25:47;9.33;;;4.73;;
8640;SDS011;4358;42.100;25.222;2024-01-30T04:28:14;7.73;;;4.70;;
8640;SDS011;4358;42.100;25.222;2024-01-30T04:30:41;6.23;;;3.87;;
8640;SDS011;4358;42.100;25.222;2024-01-30T04:33:07;8.03;;;4.60;;
8640;SDS011;4358;42.100;25.222;2024-01-30T04:35:34;9.73;;;5.27;;
8640;SDS011;4358;42.100;25.222;2024-01-30T04:38:02;30.17;;;6.23;;
8640;SDS011;4358;42.100;25.222;2024-01-30T04:40:30;14.10;;;7.40;;
8640;SDS011;4358;42.100;25.222;2024-01-30T04:42:57;9.10;;;5.07;;
8640;SDS011;4358;42.100;25.222;2024-01-30T04:45:23;8.40;;;4.70;;
8640;SDS011;4358;42.100;25.222;2024-01-30T04:47:50;8.60;;;4.77;;
8640;SDS011;4358;42.100;25.222;2024-01-30T04:50:17;12.27;;;5.87;;
8640;SDS011;4358;42.100;25.222;2024-01-30T04:52:44;10.10;;;5.87;;
8640;SDS011;4358;42.100;25.222;2024-01-30T04:55:10;9.40;;;5.23;;
8640;SDS011;4358;42.100;25.222;2024-01-30T04:57:39;13.93;;;6.80;;
8640;SDS011;4358;42.100;25.222;2024-01-30T05:00:06;9.10;;;5.77;;
8640;SDS011;4358;42.100;25.222;2024-01-30T05:02:34;11.23;;;6.27;;
8640;SDS011;4358;42.100;25.222;2024-01-30T05:05:00;11.77;;;5.50;;
8640;SDS011;4358;42.100;25.222;2024-01-30T05:07:27;6.60;;;4.00;;
8640;SDS011;4358;42.100;25.222;2024-01-30T05:09:54;8.73;;;4.80;;
8640;SDS011;4358;42.100;25.222;2024-01-30T05:12:21;7.23;;;4.53;;
8640;SDS011;4358;42.100;25.222;2024-01-30T05:14:49;11.40;;;5.47;;
8640;SDS011;4358;42.100;25.222;2024-01-30T05:17:16;7.90;;;5.20;;
8640;SDS011;4358;42.100;25.222;2024-01-30T05:19:43;8.47;;;5.07;;
8640;SDS011;4358;42.100;25.222;2024-01-30T05:22:10;8.40;;;4.47;;
8640;SDS011;4358;42.100;25.222;2024-01-30T05:24:40;10.67;;;5.97;;
8640;SDS011;4358;42.100;25.222;2024-01-30T05:27:07;16.50;;;8.60;;
8640;SDS011;4358;42.100;25.222;2024-01-30T05:29:34;10.30;;;6.07;;
8640;SDS011;4358;42.100;25.222;2024-01-30T05:32:02;9.93;;;5.73;;
8640;SDS011;4358;42.100;25.222;2024-01-30T05:34:29;6.27;;;4.67;;
8640;SDS011;4358;42.100;25.222;2024-01-30T05:36:56;13.20;;;6.53;;
8640;SDS011;4358;42.100;25.222;2024-01-30T05:39:22;9.43;;;6.40;;
8640;SDS011;4358;42.100;25.222;2024-01-30T05:41:49;17.43;;;7.87;;
8640;SDS011;4358;42.100;25.222;2024-01-30T05:44:16;14.07;;;8.13;;
8640;SDS011;4358;42.100;25.222;2024-01-30T05:46:43;15.50;;;6.20;;
8640;SDS011;4358;42.100;25.222;2024-01-30T05:49:11;17.07;;;7.93;;
8640;SDS011;4358;42.100;25.222;2024-01-30T05:51:38;13.80;;;7.20;;
8640;SDS011;4358;42.100;25.222;2024-01-30T05:54:04;11.43;;;6.33;;
8640;SDS011;4358;42.100;25.222;2024-01-30T05:56:31;9.87;;;5.30;;
8640;SDS011;4358;42.100;25.222;2024-01-30T05:58:58;10.60;;;5.03;;
8640;SDS011;4358;42.100;25.222;2024-01-30T06:01:24;9.00;;;5.20;;
8640;SDS011;4358;42.100;25.222;2024-01-30T06:03:51;12.27;;;6.67;;
8640;SDS011;4358;42.100;25.222;2024-01-30T06:06:19;9.23;;;5.70;;
8640;SDS011;4358;42.100;25.222;2024-01-30T06:08:46;13.27;;;5.30;;
8640;SDS011;4358;42.100;25.222;2024-01-30T06:11:13;8.53;;;5.13;;
8640;SDS011;4358;42.100;25.222;2024-01-30T06:13:40;13.57;;;5.90;;
8640;SDS011;4358;42.100;25.222;2024-01-30T06:16:09;10.63;;;5.80;;
8640;SDS011;4358;42.100;25.222;2024-01-30T06:18:36;9.67;;;5.60;;
8640;SDS011;4358;42.100;25.222;2024-01-30T06:21:04;11.33;;;5.53;;
8640;SDS011;4358;42.100;25.222;2024-01-30T06:23:32;16.70;;;6.43;;
8640;SDS011;4358;42.100;25.222;2024-01-30T06:25:59;11.93;;;5.83;;
8640;SDS011;4358;42.100;25.222;2024-01-30T06:28:25;10.13;;;5.33;;
8640;SDS011;4358;42.100;25.222;2024-01-30T06:30:52;7.30;;;5.77;;
8640;SDS011;4358;42.100;25.222;2024-01-30T06:33:19;12.13;;;5.70;;
8640;SDS011;4358;42.100;25.222;2024-01-30T06:35:46;10.20;;;6.10;;
8640;SDS011;4358;42.100;25.222;2024-01-30T06:38:13;10.53;;;6.07;;
8640;SDS011;4358;42.100;25.222;2024-01-30T06:40:42;7.83;;;5.67;;
8640;SDS011;4358;42.100;25.222;2024-01-30T06:43:09;8.30;;;5.13;;
8640;SDS011;4358;42.100;25.222;2024-01-30T06:45:36;13.87;;;5.80;;
8640;SDS011;4358;42.100;25.222;2024-01-30T06:48:03;24.33;;;11.17;;
8640;SDS011;4358;42.100;25.222;2024-01-30T06:50:31;21.43;;;7.73;;
8640;SDS011;4358;42.100;25.222;2024-01-30T06:52:57;13.37;;;5.70;;
8640;SDS011;4358;42.100;25.222;2024-01-30T06:55:24;27.37;;;13.00;;
8640;SDS011;4358;42.100;25.222;2024-01-30T06:57:52;58.23;;;23.93;;
8640;SDS011;4358;42.100;25.222;2024-01-30T07:00:19;44.33;;;22.67;;
8640;SDS011;4358;42.100;25.222;2024-01-30T07:02:46;31.07;;;19.60;;
8640;SDS011;4358;42.100;25.222;2024-01-30T07:05:13;22.77;;;12.57;;
8640;SDS011;4358;42.100;25.222;2024-01-30T07:07:40;16.13;;;8.67;;
8640;SDS011;4358;42.100;25.222;2024-01-30T07:10:07;10.13;;;5.70;;
8640;SDS011;4358;42.100;25.222;2024-01-30T07:12:35;10.07;;;6.83;;
8640;SDS011;4358;42.100;25.222;2024-01-30T07:15:03;11.17;;;6.57;;
8640;SDS011;4358;42.100;25.222;2024-01-30T07:17:33;15.47;;;7.63;;
8640;SDS011;4358;42.100;25.222;2024-01-30T07:20:00;11.67;;;6.27;;
8640;SDS011;4358;42.100;25.222;2024-01-30T07:22:28;11.33;;;5.63;;
8640;SDS011;4358;42.100;25.222;2024-01-30T07:24:55;9.63;;;5.60;;
8640;SDS011;4358;42.100;25.222;2024-01-30T07:27:22;7.47;;;4.70;;
8640;SDS011;4358;42.100;25.222;2024-01-30T07:29:49;10.33;;;5.90;;
8640;SDS011;4358;42.100;25.222;2024-01-30T07:32:17;13.40;;;5.40;;
8640;SDS011;4358;42.100;25.222;2024-01-30T07:34:44;10.80;;;5.93;;
8640;SDS011;4358;42.100;25.222;2024-01-30T07:37:11;9.70;;;5.43;;
8640;SDS011;4358;42.100;25.222;2024-01-30T07:39:40;17.33;;;6.33;;
8640;SDS011;4358;42.100;25.222;2024-01-30T07:42:07;9.60;;;5.33;;
8640;SDS011;4358;42.100;25.222;2024-01-30T07:44:34;10.53;;;5.93;;
8640;SDS011;4358;42.100;25.222;2024-01-30T07:47:00;8.93;;;5.60;;
8640;SDS011;4358;42.100;25.222;2024-01-30T07:49:29;15.20;;;6.60;;
8640;SDS011;4358;42.100;25.222;2024-01-30T07:51:56;10.63;;;6.30;;
8640;SDS011;4358;42.100;25.222;2024-01-30T07:54:23;9.30;;;5.03;;
8640;SDS011;4358;42.100;25.222;2024-01-30T07:56:49;15.27;;;6.50;;
8640;SDS011;4358;42.100;25.222;2024-01-30T07:59:16;12.30;;;5.47;;
8640;SDS011;4358;42.100;25.222;2024-01-30T08:01:44;12.40;;;5.37;;
8640;SDS011;4358;42.100;25.222;2024-01-30T08:04:11;13.13;;;6.53;;
8640;SDS011;4358;42.100;25.222;2024-01-30T08:06:39;11.50;;;4.70;;
8640;SDS011;4358;42.100;25.222;2024-01-30T08:09:06;9.33;;;5.17;;
8640;SDS011;4358;42.100;25.222;2024-01-30T08:11:33;15.20;;;5.90;;
8640;SDS011;4358;42.100;25.222;2024-01-30T08:14:00;8.83;;;5.20;;
8640;SDS011;4358;42.100;25.222;2024-01-30T08:16:27;17.60;;;6.33;;
8640;SDS011;4358;42.100;25.222;2024-01-30T08:18:53;8.00;;;4.70;;
8640;SDS011;4358;42.100;25.222;2024-01-30T08:21:22;9.90;;;6.03;;
8640;SDS011;4358;42.100;25.222;2024-01-30T08:23:51;8.70;;;5.10;;
8640;SDS011;4358;42.100;25.222;2024-01-30T08:26:18;9.37;;;5.60;;
8640;SDS011;4358;42.100;25.222;2024-01-30T08:28:45;9.87;;;6.07;;
8640;SDS011;4358;42.100;25.222;2024-01-30T08:31:11;14.03;;;7.47;;
8640;SDS011;4358;42.100;25.222;2024-01-30T08:33:38;12.63;;;7.27;;
8640;SDS011;4358;42.100;25.222;2024-01-30T08:36:05;14.20;;;7.33;;
8640;SDS011;4358;42.100;25.222;2024-01-30T08:38:32;12.70;;;6.53;;
8640;SDS011;4358;42.100;25.222;2024-01-30T08:41:00;12.43;;;5.73;;
8640;SDS011;4358;42.100;25.222;2024-01-30T08:43:27;10.60;;;5.87;;
8640;SDS011;4358;42.100;25.222;2024-01-30T08:45:54;10.10;;;5.67;;
8640;SDS011;4358;42.100;25.222;2024-01-30T08:48:22;12.37;;;7.93;;
8640;SDS011;4358;42.100;25.222;2024-01-30T08:50:50;13.67;;;7.30;;
8640;SDS011;4358;42.100;25.222;2024-01-30T08:53:17;17.10;;;8.17;;
8640;SDS011;4358;42.100;25.222;2024-01-30T08:55:44;17.00;;;9.90;;
8640;SDS011;4358;42.100;25.222;2024-01-30T08:58:12;14.57;;;8.70;;
8640;SDS011;4358;42.100;25.222;2024-01-30T09:00:40;16.77;;;8.90;;
8640;SDS011;4358;42.100;25.222;2024-01-30T09:03:07;14.90;;;8.70;;
8640;SDS011;4358;42.100;25.222;2024-01-30T09:05:34;15.33;;;7.97;;
8640;SDS011;4358;42.100;25.222;2024-01-30T09:08:01;19.87;;;8.80;;
8640;SDS011;4358;42.100;25.222;2024-01-30T09:10:27;18.87;;;8.57;;
8640;SDS011;4358;42.100;25.222;2024-01-30T09:12:54;16.60;;;8.40;;
8640;SDS011;4358;42.100;25.222;2024-01-30T09:15:22;20.23;;;9.80;;
8640;SDS011;4358;42.100;25.222;2024-01-30T09:17:49;16.47;;;8.73;;
8640;SDS011;4358;42.100;25.222;2024-01-30T09:20:16;23.23;;;10.57;;
8640;SDS011;4358;42.100;25.222;2024-01-30T09:22:45;25.00;;;12.27;;
8640;SDS011;4358;42.100;25.222;2024-01-30T09:25:12;25.70;;;9.03;;
8640;SDS011;4358;42.100;25.222;2024-01-30T09:27:38;16.73;;;8.30;;
8640;SDS011;4358;42.100;25.222;2024-01-30T09:30:06;23.83;;;10.97;;
8640;SDS011;4358;42.100;25.222;2024-01-30T09:32:35;31.70;;;10.63;;
8640;SDS011;4358;42.100;25.222;2024-01-30T09:35:02;17.03;;;9.50;;
8640;SDS011;4358;42.100;25.222;2024-01-30T09:37:29;17.70;;;10.70;;
8640;SDS011;4358;42.100;25.222;2024-01-30T09:39:56;21.10;;;11.13;;
8640;SDS011;4358;42.100;25.222;2024-01-30T09:42:26;16.70;;;9.37;;
8640;SDS011;4358;42.100;25.222;2024-01-30T09:44:59;12.67;;;7.47;;
8640;SDS011;4358;42.100;25.222;2024-01-30T09:47:26;16.10;;;6.73;;
8640;SDS011;4358;42.100;25.222;2024-01-30T09:49:54;20.77;;;7.43;;
8640;SDS011;4358;42.100;25.222;2024-01-30T09:52:23;9.90;;;5.33;;
8640;SDS011;4358;42.100;25.222;2024-01-30T09:54:49;9.80;;;4.40;;
8640;SDS011;4358;42.100;25.222;2024-01-30T09:57:18;10.80;;;6.10;;
8640;SDS011;4358;42.100;25.222;2024-01-30T09:59:46;10.73;;;5.60;;
8640;SDS011;4358;42.100;25.222;2024-01-30T10:02:13;6.50;;;4.03;;
8640;SDS011;4358;42.100;25.222;2024-01-30T10:04:40;10.70;;;6.17;;
8640;SDS011;4358;42.100;25.222;2024-01-30T10:07:09;9.80;;;5.87;;
8640;SDS011;4358;42.100;25.222;2024-01-30T10:09:37;11.20;;;6.27;;
8640;SDS011;4358;42.100;25.222;2024-01-30T10:12:04;10.67;;;6.40;;
8640;SDS011;4358;42.100;25.222;2024-01-30T10:14:32;10.17;;;5.50;;
8640;SDS011;4358;42.100;25.222;2024-01-30T10:17:00;8.80;;;5.70;;
8640;SDS011;4358;42.100;25.222;2024-01-30T10:19:28;14.00;;;6.30;;
8640;SDS011;4358;42.100;25.222;2024-01-30T10:21:54;9.10;;;4.80;;
8640;SDS011;4358;42.100;25.222;2024-01-30T10:24:25;16.00;;;6.67;;
8640;SDS011;4358;42.100;25.222;2024-01-30T10:26:52;13.83;;;7.03;;
8640;SDS011;4358;42.100;25.222;2024-01-30T10:29:19;27.40;;;12.37;;
8640;SDS011;4358;42.100;25.222;2024-01-30T10:31:46;34.20;;;17.47;;
8640;SDS011;4358;42.100;25.222;2024-01-30T10:34:23;27.73;;;14.97;;
8640;SDS011;4358;42.100;25.222;2024-01-30T10:36:50;16.20;;;8.60;;
8640;SDS011;4358;42.100;25.222;2024-01-30T10:39:21;14.77;;;7.87;;
8640;SDS011;4358;42.100;25.222;2024-01-30T10:41:51;8.67;;;5.20;;
8640;SDS011;4358;42.100;25.222;2024-01-30T10:44:22;6.53;;;4.27;;
8640;SDS011;4358;42.100;25.222;2024-01-30T10:46:51;13.00;;;5.57;;
8640;SDS011;4358;42.100;25.222;2024-01-30T10:49:26;12.37;;;6.57;;
8640;SDS011;4358;42.100;25.222;2024-01-30T10:51:54;19.33;;;8.30;;
8640;SDS011;4358;42.100;25.222;2024-01-30T10:54:23;23.03;;;10.73;;
8640;SDS011;4358;42.100;25.222;2024-01-30T10:56:52;19.10;;;7.77;;
8640;SDS011;4358;42.100;25.222;2024-01-30T10:59:19;20.40;;;7.50;;
8640;SDS011;4358;42.100;25.222;2024-01-30T11:01:49;12.97;;;6.37;;
8640;SDS011;4358;42.100;25.222;2024-01-30T11:04:17;28.50;;;8.43;;
8640;SDS011;4358;42.100;25.222;2024-01-30T11:06:43;13.13;;;7.37;;
8640;SDS011;4358;42.100;25.222;2024-01-30T11:09:10;16.67;;;8.43;;
8640;SDS011;4358;42.100;25.222;2024-01-30T11:11:50;9.73;;;5.53;;
8640;SDS011;4358;42.100;25.222;2024-01-30T11:14:25;9.90;;;6.03;;
8640;SDS011;4358;42.100;25.222;2024-01-30T11:16:53;7.43;;;4.70;;
8640;SDS011;4358;42.100;25.222;2024-01-30T11:19:23;13.23;;;8.10;;
8640;SDS011;4358;42.100;25.222;2024-01-30T11:21:51;10.93;;;6.97;;
8640;SDS011;4358;42.100;25.222;2024-01-30T11:24:19;12.13;;;6.93;;
8640;SDS011;4358;42.100;25.222;2024-01-30T11:26:48;24.07;;;6.23;;
8640;SDS011;4358;42.100;25.222;2024-01-30T11:29:17;16.60;;;5.47;;
8640;SDS011;4358;42.100;25.222;2024-01-30T11:31:53;14.37;;;7.80;;
8640;SDS011;4358;42.100;25.222;2024-01-30T11:34:21;11.50;;;5.73;;
8640;SDS011;4358;42.100;25.222;2024-01-30T11:36:51;16.13;;;8.20;;
8640;SDS011;4358;42.100;25.222;2024-01-30T11:39:20;12.30;;;7.77;;
8640;SDS011;4358;42.100;25.222;2024-01-30T11:41:47;12.20;;;8.00;;
8640;SDS011;4358;42.100;25.222;2024-01-30T11:44:19;8.43;;;5.27;;
8640;SDS011;4358;42.100;25.222;2024-01-30T11:46:46;6.83;;;3.40;;
8640;SDS011;4358;42.100;25.222;2024-01-30T11:49:14;3.57;;;2.63;;
8640;SDS011;4358;42.100;25.222;2024-01-30T11:51:41;9.73;;;3.43;;
8640;SDS011;4358;42.100;25.222;2024-01-30T11:54:08;7.80;;;4.70;;
8640;SDS011;4358;42.100;25.222;2024-01-30T11:56:36;7.90;;;5.27;;
8640;SDS011;4358;42.100;25.222;2024-01-30T11:59:03;11.77;;;3.83;;
8640;SDS011;4358;42.100;25.222;2024-01-30T12:01:33;4.00;;;2.17;;
8640;SDS011;4358;42.100;25.222;2024-01-30T12:03:59;8.07;;;3.47;;
8640;SDS011;4358;42.100;25.222;2024-01-30T12:06:26;9.23;;;2.70;;
8640;SDS011;4358;42.100;25.222;2024-01-30T12:08:57;3.13;;;2.20;;
8640;SDS011;4358;42.100;25.222;2024-01-30T12:11:24;3.73;;;2.80;;
8640;SDS011;4358;42.100;25.222;2024-01-30T12:13:51;6.07;;;3.63;;
8640;SDS011;4358;42.100;25.222;2024-01-30T12:16:19;4.83;;;3.13;;
8640;SDS011;4358;42.100;25.222;2024-01-30T12:18:48;7.40;;;3.90;;
8640;SDS011;4358;42.100;25.222;2024-01-30T12:21:16;4.60;;;2.80;;
8640;SDS011;4358;42.100;25.222;2024-01-30T12:23:43;3.30;;;2.60;;
8640;SDS011;4358;42.100;25.222;2024-01-30T12:26:10;3.93;;;2.40;;
8640;SDS011;4358;42.100;25.222;2024-01-30T12:28:46;6.57;;;3.27;;
8640;SDS011;4358;42.100;25.222;2024-01-30T12:31:14;4.93;;;2.83;;
8640;SDS011;4358;42.100;25.222;2024-01-30T12:33:40;5.93;;;3.30;;
8640;SDS011;4358;42.100;25.222;2024-01-30T12:36:09;3.73;;;2.30;;
8640;SDS011;4358;42.100;25.222;2024-01-30T12:38:37;3.47;;;2.30;;
8640;SDS011;4358;42.100;25.222;2024-01-30T12:41:04;3.10;;;2.13;;
8640;SDS011;4358;42.100;25.222;2024-01-30T12:43:33;3.67;;;2.40;;
8640;SDS011;4358;42.100;25.222;2024-01-30T12:46:00;3.23;;;2.20;;
8640;SDS011;4358;42.100;25.222;2024-01-30T12:48:27;2.60;;;2.20;;
8640;SDS011;4358;42.100;25.222;2024-01-30T12:50:55;5.07;;;3.00;;
8640;SDS011;4358;42.100;25.222;2024-01-30T12:53:23;3.63;;;1.93;;
8640;SDS011;4358;42.100;25.222;2024-01-30T12:55:50;5.43;;;2.23;;
8640;SDS011;4358;42.100;25.222;2024-01-30T12:58:18;4.33;;;2.30;;
8640;SDS011;4358;42.100;25.222;2024-01-30T13:00:44;4.07;;;2.20;;
8640;SDS011;4358;42.100;25.222;2024-01-30T13:03:12;5.20;;;3.20;;
8640;SDS011;4358;42.100;25.222;2024-01-30T13:05:39;5.77;;;3.40;;
8640;SDS011;4358;42.100;25.222;2024-01-30T13:08:06;4.50;;;3.13;;
8640;SDS011;4358;42.100;25.222;2024-01-30T13:10:34;4.90;;;2.67;;
8640;SDS011;4358;42.100;25.222;2024-01-30T13:13:00;5.50;;;2.53;;
8640;SDS011;4358;42.100;25.222;2024-01-30T13:15:27;6.13;;;3.07;;
8640;SDS011;4358;42.100;25.222;2024-01-30T13:17:54;4.50;;;2.63;;
8640;SDS011;4358;42.100;25.222;2024-01-30T13:20:21;6.10;;;2.60;;
8640;SDS011;4358;42.100;25.222;2024-01-30T13:22:48;8.60;;;3.30;;
8640;SDS011;4358;42.100;25.222;2024-01-30T13:25:15;4.83;;;2.90;;
8640;SDS011;4358;42.100;25.222;2024-01-30T13:27:43;4.43;;;2.90;;
8640;SDS011;4358;42.100;25.222;2024-01-30T13:30:10;15.40;;;3.30;;
8640;SDS011;4358;42.100;25.222;2024-01-30T13:32:37;3.73;;;2.50;;
8640;SDS011;4358;42.100;25.222;2024-01-30T13:35:06;12.93;;;3.47;;
8640;SDS011;4358;42.100;25.222;2024-01-30T13:37:34;5.63;;;2.40;;
8640;SDS011;4358;42.100;25.222;2024-01-30T13:40:00;2.70;;;2.00;;
8640;SDS011;4358;42.100;25.222;2024-01-30T13:42:28;5.63;;;2.93;;
8640;SDS011;4358;42.100;25.222;2024-01-30T13:44:56;17.03;;;2.80;;
8640;SDS011;4358;42.100;25.222;2024-01-30T13:47:22;3.70;;;2.43;;
8640;SDS011;4358;42.100;25.222;2024-01-30T13:49:50;4.13;;;2.50;;
8640;SDS011;4358;42.100;25.222;2024-01-30T13:52:18;7.27;;;2.90;;
8640;SDS011;4358;42.100;25.222;2024-01-30T13:54:45;7.47;;;3.27;;
8640;SDS011;4358;42.100;25.222;2024-01-30T13:57:11;25.73;;;4.50;;
8640;SDS011;4358;42.100;25.222;2024-01-30T13:59:38;4.63;;;2.80;;
8640;SDS011;4358;42.100;25.222;2024-01-30T14:02:06;6.00;;;3.43;;
8640;SDS011;4358;42.100;25.222;2024-01-30T14:04:35;14.37;;;3.83;;
8640;SDS011;4358;42.100;25.222;2024-01-30T14:07:02;8.27;;;3.13;;
8640;SDS011;4358;42.100;25.222;2024-01-30T14:09:30;3.70;;;2.50;;
8640;SDS011;4358;42.100;25.222;2024-01-30T14:11:57;5.67;;;2.90;;
8640;SDS011;4358;42.100;25.222;2024-01-30T14:14:24;4.20;;;2.43;;
8640;SDS011;4358;42.100;25.222;2024-01-30T14:16:51;6.30;;;3.10;;
8640;SDS011;4358;42.100;25.222;2024-01-30T14:19:19;18.23;;;2.87;;
8640;SDS011;4358;42.100;25.222;2024-01-30T14:21:46;21.43;;;3.40;;
8640;SDS011;4358;42.100;25.222;2024-01-30T14:24:13;8.17;;;2.47;;
8640;SDS011;4358;42.100;25.222;2024-01-30T14:26:39;4.00;;;2.53;;
8640;SDS011;4358;42.100;25.222;2024-01-30T14:29:06;3.67;;;2.53;;
8640;SDS011;4358;42.100;25.222;2024-01-30T14:31:33;4.77;;;3.07;;
8640;SDS011;4358;42.100;25.222;2024-01-30T14:34:00;3.43;;;2.33;;
8640;SDS011;4358;42.100;25.222;2024-01-30T14:36:28;5.33;;;2.77;;
8640;SDS011;4358;42.100;25.222;2024-01-30T14:38:54;10.63;;;2.93;;
8640;SDS011;4358;42.100;25.222;2024-01-30T14:41:21;4.30;;;3.07;;
8640;SDS011;4358;42.100;25.222;2024-01-30T14:43:48;3.83;;;2.53;;
8640;SDS011;4358;42.100;25.222;2024-01-30T14:46:15;4.53;;;2.73;;
8640;SDS011;4358;42.100;25.222;2024-01-30T14:48:42;17.00;;;3.77;;
8640;SDS011;4358;42.100;25.222;2024-01-30T14:51:09;9.63;;;3.90;;
8640;SDS011;4358;42.100;25.222;2024-01-30T14:53:37;10.23;;;3.90;;
8640;SDS011;4358;42.100;25.222;2024-01-30T14:56:04;13.63;;;4.83;;